sensor_id;sensor_type;location;lat;lon;timestamp;P1;durP1;ratioP1;P2;durP2;ratioP2
74328;SDS011;62745;51.060;13.786;2023-11-18T00:01:55;5.93;;;2.37;;
74328;SDS011;62745;51.060;13.786;2023-11-18T00:04:21;5.78;;;2.22;;
74328;SDS011;62745;51.060;13.786;2023-11-18T00:06:47;5.45;;;2.60;;
74328;SDS011;62745;51.060;13.786;2023-11-18T00:09:12;6.10;;;2.60;;
74328;SDS011;62745;51.060;13.786;2023-11-18T00:11:38;4.63;;;2.30;;
74328;SDS011;62745;51.060;13.786;2023-11-18T00:14:09;6.70;;;2.42;;
74328;SDS011;62745;51.060;13.786;2023-11-18T00:16:36;5.43;;;3.08;;
74328;SDS011;62745;51.060;13.786;2023-11-18T00:19:02;5.60;;;2.85;;
74328;SDS011;62745;51.060;13.786;2023-11-18T00:21:29;5.50;;;2.78;;
74328;SDS011;62745;51.060;13.786;2023-11-18T00:23:55;6.63;;;2.60;;
74328;SDS011;62745;51.060;13.786;2023-11-18T00:26:21;5.60;;;2.42;;
74328;SDS011;62745;51.060;13.786;2023-11-18T00:28:46;6.43;;;2.92;;
74328;SDS011;62745;51.060;13.786;2023-11-18T00:31:12;5.45;;;2.60;;
74328;SDS011;62745;51.060;13.786;2023-11-18T00:33:38;5.20;;;2.42;;
74328;SDS011;62745;51.060;13.786;2023-11-18T00:36:03;7.27;;;2.80;;
74328;SDS011;62745;51.060;13.786;2023-11-18T00:38:28;4.72;;;2.20;;
74328;SDS011;62745;51.060;13.786;2023-11-18T00:40:54;5.53;;;2.07;;
74328;SDS011;62745;51.060;13.786;2023-11-18T00:43:19;5.03;;;2.30;;
74328;SDS011;62745;51.060;13.786;2023-11-18T00:45:45;4.00;;;2.00;;
74328;SDS011;62745;51.060;13.786;2023-11-18T00:48:10;5.28;;;2.22;;
74328;SDS011;62745;51.060;13.786;2023-11-18T00:50:35;4.00;;;2.20;;
74328;SDS011;62745;51.060;13.786;2023-11-18T00:53:01;6.72;;;2.60;;
74328;SDS011;62745;51.060;13.786;2023-11-18T00:55:26;4.30;;;1.60;;
74328;SDS011;62745;51.060;13.786;2023-11-18T00:57:51;4.63;;;2.30;;
74328;SDS011;62745;51.060;13.786;2023-11-18T01:00:17;5.17;;;2.30;;
74328;SDS011;62745;51.060;13.786;2023-11-18T01:02:46;5.72;;;2.50;;
74328;SDS011;62745;51.060;13.786;2023-11-18T01:05:13;6.05;;;2.33;;
74328;SDS011;62745;51.060;13.786;2023-11-18T01:07:38;6.65;;;2.22;;
74328;SDS011;62745;51.060;13.786;2023-11-18T01:10:05;5.30;;;2.10;;
74328;SDS011;62745;51.060;13.786;2023-11-18T01:12:31;5.97;;;2.40;;
74328;SDS011;62745;51.060;13.786;2023-11-18T01:14:56;5.33;;;2.27;;
74328;SDS011;62745;51.060;13.786;2023-11-18T01:17:22;6.20;;;2.27;;
74328;SDS011;62745;51.060;13.786;2023-11-18T01:19:47;5.63;;;2.45;;
74328;SDS011;62745;51.060;13.786;2023-11-18T01:22:12;5.10;;;2.20;;
74328;SDS011;62745;51.060;13.786;2023-11-18T01:24:38;6.38;;;2.90;;
74328;SDS011;62745;51.060;13.786;2023-11-18T01:27:03;6.03;;;2.60;;
74328;SDS011;62745;51.060;13.786;2023-11-18T01:29:29;5.43;;;2.67;;
74328;SDS011;62745;51.060;13.786;2023-11-18T01:31:54;5.43;;;2.73;;
74328;SDS011;62745;51.060;13.786;2023-11-18T01:34:21;6.53;;;2.65;;
74328;SDS011;62745;51.060;13.786;2023-11-18T01:36:46;6.05;;;2.38;;
74328;SDS011;62745;51.060;13.786;2023-11-18T01:39:14;5.20;;;2.13;;
74328;SDS011;62745;51.060;13.786;2023-11-18T01:41:40;5.78;;;2.67;;
74328;SDS011;62745;51.060;13.786;2023-11-18T01:44:05;6.40;;;2.27;;
74328;SDS011;62745;51.060;13.786;2023-11-18T01:46:30;5.20;;;2.58;;
74328;SDS011;62745;51.060;13.786;2023-11-18T01:48:56;6.60;;;2.23;;
74328;SDS011;62745;51.060;13.786;2023-11-18T01:51:21;5.63;;;2.33;;
74328;SDS011;62745;51.060;13.786;2023-11-18T01:53:48;5.32;;;2.20;;
74328;SDS011;62745;51.060;13.786;2023-11-18T01:56:15;6.47;;;2.72;;
74328;SDS011;62745;51.060;13.786;2023-11-18T01:58:40;6.18;;;2.22;;
74328;SDS011;62745;51.060;13.786;2023-11-18T02:01:06;5.00;;;2.10;;
74328;SDS011;62745;51.060;13.786;2023-11-18T02:03:33;5.47;;;2.08;;
74328;SDS011;62745;51.060;13.786;2023-11-18T02:06:03;5.15;;;2.03;;
74328;SDS011;62745;51.060;13.786;2023-11-18T02:08:30;4.75;;;2.15;;
74328;SDS011;62745;51.060;13.786;2023-11-18T02:11:09;5.28;;;2.50;;
74328;SDS011;62745;51.060;13.786;2023-11-18T02:13:41;4.93;;;2.00;;
74328;SDS011;62745;51.060;13.786;2023-11-18T02:16:11;5.30;;;1.98;;
74328;SDS011;62745;51.060;13.786;2023-11-18T02:18:36;5.22;;;2.60;;
74328;SDS011;62745;51.060;13.786;2023-11-18T02:21:04;4.45;;;1.90;;
74328;SDS011;62745;51.060;13.786;2023-11-18T02:23:33;5.38;;;2.45;;
74328;SDS011;62745;51.060;13.786;2023-11-18T02:25:58;5.28;;;2.35;;
74328;SDS011;62745;51.060;13.786;2023-11-18T02:28:26;4.93;;;2.05;;
74328;SDS011;62745;51.060;13.786;2023-11-18T02:30:53;4.07;;;1.77;;
74328;SDS011;62745;51.060;13.786;2023-11-18T02:33:22;6.25;;;2.45;;
74328;SDS011;62745;51.060;13.786;2023-11-18T02:35:59;7.25;;;2.85;;
74328;SDS011;62745;51.060;13.786;2023-11-18T02:38:30;5.68;;;2.40;;
74328;SDS011;62745;51.060;13.786;2023-11-18T02:41:02;5.60;;;2.25;;
74328;SDS011;62745;51.060;13.786;2023-11-18T02:43:35;5.82;;;2.60;;
74328;SDS011;62745;51.060;13.786;2023-11-18T02:46:04;5.45;;;1.95;;
74328;SDS011;62745;51.060;13.786;2023-11-18T02:48:32;5.10;;;2.40;;
74328;SDS011;62745;51.060;13.786;2023-11-18T02:50:57;5.30;;;2.00;;
74328;SDS011;62745;51.060;13.786;2023-11-18T02:53:23;6.18;;;2.53;;
74328;SDS011;62745;51.060;13.786;2023-11-18T02:55:49;5.22;;;2.20;;
74328;SDS011;62745;51.060;13.786;2023-11-18T02:58:16;3.90;;;1.75;;
74328;SDS011;62745;51.060;13.786;2023-11-18T03:00:42;5.68;;;2.60;;
74328;SDS011;62745;51.060;13.786;2023-11-18T03:03:09;4.32;;;1.88;;
74328;SDS011;62745;51.060;13.786;2023-11-18T03:05:35;6.30;;;2.42;;
74328;SDS011;62745;51.060;13.786;2023-11-18T03:08:01;5.20;;;2.50;;
74328;SDS011;62745;51.060;13.786;2023-11-18T03:10:26;5.20;;;2.40;;
74328;SDS011;62745;51.060;13.786;2023-11-18T03:12:54;5.05;;;2.10;;
74328;SDS011;62745;51.060;13.786;2023-11-18T03:15:20;4.90;;;1.77;;
74328;SDS011;62745;51.060;13.786;2023-11-18T03:17:47;6.38;;;2.40;;
74328;SDS011;62745;51.060;13.786;2023-11-18T03:20:15;5.45;;;2.10;;
74328;SDS011;62745;51.060;13.786;2023-11-18T03:22:45;7.03;;;2.72;;
74328;SDS011;62745;51.060;13.786;2023-11-18T03:25:11;4.93;;;2.17;;
74328;SDS011;62745;51.060;13.786;2023-11-18T03:27:37;5.40;;;2.47;;
74328;SDS011;62745;51.060;13.786;2023-11-18T03:30:03;5.93;;;2.35;;
74328;SDS011;62745;51.060;13.786;2023-11-18T03:32:29;5.25;;;2.22;;
74328;SDS011;62745;51.060;13.786;2023-11-18T03:34:54;5.07;;;1.97;;
74328;SDS011;62745;51.060;13.786;2023-11-18T03:37:19;6.33;;;2.60;;
74328;SDS011;62745;51.060;13.786;2023-11-18T03:39:48;5.80;;;2.58;;
74328;SDS011;62745;51.060;13.786;2023-11-18T03:42:13;6.30;;;2.10;;
74328;SDS011;62745;51.060;13.786;2023-11-18T03:44:38;5.97;;;2.23;;
74328;SDS011;62745;51.060;13.786;2023-11-18T03:47:03;5.60;;;2.47;;
74328;SDS011;62745;51.060;13.786;2023-11-18T03:49:29;6.07;;;2.65;;
74328;SDS011;62745;51.060;13.786;2023-11-18T03:51:54;5.40;;;2.63;;
74328;SDS011;62745;51.060;13.786;2023-11-18T03:54:19;6.97;;;2.63;;
74328;SDS011;62745;51.060;13.786;2023-11-18T03:56:45;6.43;;;2.47;;
74328;SDS011;62745;51.060;13.786;2023-11-18T03:59:10;6.77;;;2.30;;
74328;SDS011;62745;51.060;13.786;2023-11-18T04:01:35;5.18;;;2.35;;
74328;SDS011;62745;51.060;13.786;2023-11-18T04:04:01;7.10;;;2.55;;
74328;SDS011;62745;51.060;13.786;2023-11-18T04:06:26;6.70;;;2.93;;
74328;SDS011;62745;51.060;13.786;2023-11-18T04:08:51;5.72;;;2.53;;
74328;SDS011;62745;51.060;13.786;2023-11-18T04:11:17;6.60;;;2.60;;
74328;SDS011;62745;51.060;13.786;2023-11-18T04:13:43;7.05;;;2.33;;
74328;SDS011;62745;51.060;13.786;2023-11-18T04:16:12;6.40;;;2.35;;
74328;SDS011;62745;51.060;13.786;2023-11-18T04:18:41;6.95;;;3.13;;
74328;SDS011;62745;51.060;13.786;2023-11-18T04:21:08;6.60;;;2.53;;
74328;SDS011;62745;51.060;13.786;2023-11-18T04:23:37;7.53;;;3.13;;
74328;SDS011;62745;51.060;13.786;2023-11-18T04:26:03;7.63;;;2.85;;
74328;SDS011;62745;51.060;13.786;2023-11-18T04:28:29;6.32;;;2.53;;
74328;SDS011;62745;51.060;13.786;2023-11-18T04:30:55;5.37;;;2.50;;
74328;SDS011;62745;51.060;13.786;2023-11-18T04:33:20;5.60;;;2.67;;
74328;SDS011;62745;51.060;13.786;2023-11-18T04:35:46;6.73;;;3.10;;
74328;SDS011;62745;51.060;13.786;2023-11-18T04:38:11;6.40;;;3.13;;
74328;SDS011;62745;51.060;13.786;2023-11-18T04:40:37;6.17;;;3.10;;
74328;SDS011;62745;51.060;13.786;2023-11-18T04:43:03;6.70;;;3.00;;
74328;SDS011;62745;51.060;13.786;2023-11-18T04:45:29;9.02;;;3.30;;
74328;SDS011;62745;51.060;13.786;2023-11-18T04:47:55;7.82;;;3.03;;
74328;SDS011;62745;51.060;13.786;2023-11-18T04:50:21;5.65;;;2.80;;
74328;SDS011;62745;51.060;13.786;2023-11-18T04:52:46;7.73;;;3.60;;
74328;SDS011;62745;51.060;13.786;2023-11-18T04:55:11;7.23;;;2.93;;
74328;SDS011;62745;51.060;13.786;2023-11-18T04:57:38;6.30;;;2.85;;
74328;SDS011;62745;51.060;13.786;2023-11-18T05:00:04;5.68;;;2.53;;
74328;SDS011;62745;51.060;13.786;2023-11-18T05:02:35;6.22;;;2.75;;
74328;SDS011;62745;51.060;13.786;2023-11-18T05:05:02;6.07;;;2.53;;
74328;SDS011;62745;51.060;13.786;2023-11-18T05:07:30;7.03;;;3.13;;
74328;SDS011;62745;51.060;13.786;2023-11-18T05:09:55;5.97;;;2.75;;
74328;SDS011;62745;51.060;13.786;2023-11-18T05:12:21;6.67;;;2.90;;
74328;SDS011;62745;51.060;13.786;2023-11-18T05:14:46;6.30;;;2.83;;
74328;SDS011;62745;51.060;13.786;2023-11-18T05:17:14;6.38;;;2.90;;
74328;SDS011;62745;51.060;13.786;2023-11-18T05:19:40;7.53;;;3.15;;
74328;SDS011;62745;51.060;13.786;2023-11-18T05:22:06;6.32;;;3.25;;
74328;SDS011;62745;51.060;13.786;2023-11-18T05:24:31;7.28;;;2.90;;
74328;SDS011;62745;51.060;13.786;2023-11-18T05:26:57;7.25;;;2.80;;
74328;SDS011;62745;51.060;13.786;2023-11-18T05:29:22;6.50;;;2.78;;
74328;SDS011;62745;51.060;13.786;2023-11-18T05:31:48;7.65;;;3.38;;
74328;SDS011;62745;51.060;13.786;2023-11-18T05:34:16;7.05;;;3.25;;
74328;SDS011;62745;51.060;13.786;2023-11-18T05:36:41;6.33;;;3.13;;
74328;SDS011;62745;51.060;13.786;2023-11-18T05:39:06;6.90;;;3.23;;
74328;SDS011;62745;51.060;13.786;2023-11-18T05:41:34;6.13;;;2.75;;
74328;SDS011;62745;51.060;13.786;2023-11-18T05:44:00;8.77;;;3.53;;
74328;SDS011;62745;51.060;13.786;2023-11-18T05:46:25;7.18;;;3.15;;
74328;SDS011;62745;51.060;13.786;2023-11-18T05:48:54;6.47;;;3.17;;
74328;SDS011;62745;51.060;13.786;2023-11-18T05:51:23;5.85;;;2.88;;
74328;SDS011;62745;51.060;13.786;2023-11-18T05:53:50;7.57;;;3.15;;
74328;SDS011;62745;51.060;13.786;2023-11-18T05:56:17;7.57;;;3.28;;
74328;SDS011;62745;51.060;13.786;2023-11-18T05:58:42;7.88;;;3.35;;
74328;SDS011;62745;51.060;13.786;2023-11-18T06:01:08;7.25;;;3.53;;
74328;SDS011;62745;51.060;13.786;2023-11-18T06:03:34;7.40;;;3.28;;
74328;SDS011;62745;51.060;13.786;2023-11-18T06:06:07;8.10;;;3.88;;
74328;SDS011;62745;51.060;13.786;2023-11-18T06:08:35;8.85;;;3.00;;
74328;SDS011;62745;51.060;13.786;2023-11-18T06:11:01;6.97;;;3.38;;
74328;SDS011;62745;51.060;13.786;2023-11-18T06:13:37;7.78;;;3.95;;
74328;SDS011;62745;51.060;13.786;2023-11-18T06:16:07;8.30;;;3.78;;
74328;SDS011;62745;51.060;13.786;2023-11-18T06:18:34;6.97;;;3.65;;
74328;SDS011;62745;51.060;13.786;2023-11-18T06:21:01;7.00;;;3.08;;
74328;SDS011;62745;51.060;13.786;2023-11-18T06:23:26;8.27;;;3.30;;
74328;SDS011;62745;51.060;13.786;2023-11-18T06:25:51;8.47;;;3.60;;
74328;SDS011;62745;51.060;13.786;2023-11-18T06:28:16;7.77;;;3.43;;
74328;SDS011;62745;51.060;13.786;2023-11-18T06:30:42;7.83;;;3.20;;
74328;SDS011;62745;51.060;13.786;2023-11-18T06:33:07;7.40;;;3.63;;
74328;SDS011;62745;51.060;13.786;2023-11-18T06:35:32;8.67;;;3.97;;
74328;SDS011;62745;51.060;13.786;2023-11-18T06:37:59;10.13;;;3.67;;
74328;SDS011;62745;51.060;13.786;2023-11-18T06:40:26;7.38;;;2.85;;
74328;SDS011;62745;51.060;13.786;2023-11-18T06:42:52;6.75;;;3.50;;
74328;SDS011;62745;51.060;13.786;2023-11-18T06:45:19;7.80;;;3.50;;
74328;SDS011;62745;51.060;13.786;2023-11-18T06:47:47;7.20;;;3.70;;
74328;SDS011;62745;51.060;13.786;2023-11-18T06:50:14;8.30;;;3.78;;
74328;SDS011;62745;51.060;13.786;2023-11-18T06:52:40;8.30;;;3.63;;
74328;SDS011;62745;51.060;13.786;2023-11-18T06:55:06;7.30;;;3.22;;
74328;SDS011;62745;51.060;13.786;2023-11-18T06:57:32;7.97;;;3.58;;
74328;SDS011;62745;51.060;13.786;2023-11-18T06:59:57;8.17;;;3.10;;
74328;SDS011;62745;51.060;13.786;2023-11-18T07:02:23;8.10;;;3.40;;
74328;SDS011;62745;51.060;13.786;2023-11-18T07:04:48;7.57;;;3.70;;
74328;SDS011;62745;51.060;13.786;2023-11-18T07:07:14;9.53;;;3.73;;
74328;SDS011;62745;51.060;13.786;2023-11-18T07:09:39;7.13;;;3.50;;
74328;SDS011;62745;51.060;13.786;2023-11-18T07:12:04;8.30;;;4.10;;
74328;SDS011;62745;51.060;13.786;2023-11-18T07:14:30;8.00;;;3.38;;
74328;SDS011;62745;51.060;13.786;2023-11-18T07:16:55;8.80;;;3.73;;
74328;SDS011;62745;51.060;13.786;2023-11-18T07:19:20;8.33;;;3.57;;
74328;SDS011;62745;51.060;13.786;2023-11-18T07:21:49;7.90;;;3.88;;
74328;SDS011;62745;51.060;13.786;2023-11-18T07:24:15;8.88;;;4.45;;
74328;SDS011;62745;51.060;13.786;2023-11-18T07:26:42;7.32;;;3.60;;
74328;SDS011;62745;51.060;13.786;2023-11-18T07:29:09;6.78;;;3.50;;
74328;SDS011;62745;51.060;13.786;2023-11-18T07:31:34;8.80;;;3.27;;
74328;SDS011;62745;51.060;13.786;2023-11-18T07:34:01;9.20;;;3.58;;
74328;SDS011;62745;51.060;13.786;2023-11-18T07:36:27;8.55;;;3.35;;
74328;SDS011;62745;51.060;13.786;2023-11-18T07:38:53;7.40;;;3.50;;
74328;SDS011;62745;51.060;13.786;2023-11-18T07:41:18;6.97;;;3.10;;
74328;SDS011;62745;51.060;13.786;2023-11-18T07:43:50;7.97;;;3.60;;
74328;SDS011;62745;51.060;13.786;2023-11-18T07:46:17;10.05;;;3.60;;
74328;SDS011;62745;51.060;13.786;2023-11-18T07:48:43;10.02;;;4.30;;
74328;SDS011;62745;51.060;13.786;2023-11-18T07:51:08;8.30;;;3.73;;
74328;SDS011;62745;51.060;13.786;2023-11-18T07:53:33;10.77;;;3.60;;
74328;SDS011;62745;51.060;13.786;2023-11-18T07:55:59;7.47;;;3.28;;
74328;SDS011;62745;51.060;13.786;2023-11-18T07:58:26;7.45;;;3.78;;
74328;SDS011;62745;51.060;13.786;2023-11-18T08:00:52;7.32;;;3.08;;
74328;SDS011;62745;51.060;13.786;2023-11-18T08:03:17;9.38;;;3.95;;
74328;SDS011;62745;51.060;13.786;2023-11-18T08:05:43;6.60;;;3.20;;
74328;SDS011;62745;51.060;13.786;2023-11-18T08:08:10;9.00;;;3.30;;
74328;SDS011;62745;51.060;13.786;2023-11-18T08:10:37;11.00;;;3.35;;
74328;SDS011;62745;51.060;13.786;2023-11-18T08:13:06;7.35;;;3.22;;
74328;SDS011;62745;51.060;13.786;2023-11-18T08:15:33;7.90;;;3.58;;
74328;SDS011;62745;51.060;13.786;2023-11-18T08:18:07;8.52;;;3.40;;
74328;SDS011;62745;51.060;13.786;2023-11-18T08:20:35;8.13;;;3.90;;
74328;SDS011;62745;51.060;13.786;2023-11-18T08:23:01;7.95;;;3.47;;
74328;SDS011;62745;51.060;13.786;2023-11-18T08:25:29;6.97;;;3.00;;
74328;SDS011;62745;51.060;13.786;2023-11-18T08:27:55;10.05;;;3.47;;
74328;SDS011;62745;51.060;13.786;2023-11-18T08:30:20;7.13;;;3.77;;
74328;SDS011;62745;51.060;13.786;2023-11-18T08:32:46;7.57;;;3.55;;
74328;SDS011;62745;51.060;13.786;2023-11-18T08:35:13;7.75;;;3.65;;
74328;SDS011;62745;51.060;13.786;2023-11-18T08:37:39;6.47;;;3.30;;
74328;SDS011;62745;51.060;13.786;2023-11-18T08:40:06;8.00;;;3.92;;
74328;SDS011;62745;51.060;13.786;2023-11-18T08:42:39;7.40;;;3.47;;
74328;SDS011;62745;51.060;13.786;2023-11-18T08:45:06;6.55;;;3.13;;
74328;SDS011;62745;51.060;13.786;2023-11-18T08:47:32;6.72;;;3.55;;
74328;SDS011;62745;51.060;13.786;2023-11-18T08:49:57;6.30;;;3.27;;
74328;SDS011;62745;51.060;13.786;2023-11-18T08:52:23;7.28;;;3.35;;
74328;SDS011;62745;51.060;13.786;2023-11-18T08:54:50;7.93;;;3.60;;
74328;SDS011;62745;51.060;13.786;2023-11-18T08:57:42;10.07;;;3.63;;
74328;SDS011;62745;51.060;13.786;2023-11-18T09:00:17;7.43;;;3.33;;
74328;SDS011;62745;51.060;13.786;2023-11-18T09:03:02;7.18;;;3.15;;
74328;SDS011;62745;51.060;13.786;2023-11-18T09:05:30;6.55;;;3.17;;
74328;SDS011;62745;51.060;13.786;2023-11-18T09:07:57;6.75;;;3.13;;
74328;SDS011;62745;51.060;13.786;2023-11-18T09:10:26;6.97;;;3.15;;
74328;SDS011;62745;51.060;13.786;2023-11-18T09:12:53;6.70;;;3.10;;
74328;SDS011;62745;51.060;13.786;2023-11-18T09:15:19;8.88;;;3.72;;
74328;SDS011;62745;51.060;13.786;2023-11-18T09:17:47;7.53;;;2.83;;
74328;SDS011;62745;51.060;13.786;2023-11-18T09:20:13;5.63;;;2.60;;
74328;SDS011;62745;51.060;13.786;2023-11-18T09:22:43;7.72;;;3.63;;
74328;SDS011;62745;51.060;13.786;2023-11-18T09:25:09;6.57;;;3.03;;
74328;SDS011;62745;51.060;13.786;2023-11-18T09:27:35;7.63;;;3.08;;
74328;SDS011;62745;51.060;13.786;2023-11-18T09:30:03;8.32;;;3.60;;
74328;SDS011;62745;51.060;13.786;2023-11-18T09:32:38;9.02;;;4.53;;
74328;SDS011;62745;51.060;13.786;2023-11-18T09:35:04;6.38;;;3.20;;
74328;SDS011;62745;51.060;13.786;2023-11-18T09:37:34;7.53;;;3.78;;
74328;SDS011;62745;51.060;13.786;2023-11-18T09:39:59;8.10;;;3.70;;
74328;SDS011;62745;51.060;13.786;2023-11-18T09:45:02;9.57;;;3.42;;
74328;SDS011;62745;51.060;13.786;2023-11-18T09:47:30;6.47;;;3.28;;
74328;SDS011;62745;51.060;13.786;2023-11-18T09:50:02;11.02;;;3.75;;
74328;SDS011;62745;51.060;13.786;2023-11-18T09:55:36;6.70;;;3.40;;
74328;SDS011;62745;51.060;13.786;2023-11-18T09:58:09;6.72;;;3.20;;
74328;SDS011;62745;51.060;13.786;2023-11-18T10:00:38;6.93;;;3.17;;
74328;SDS011;62745;51.060;13.786;2023-11-18T10:03:07;6.72;;;3.40;;
74328;SDS011;62745;51.060;13.786;2023-11-18T10:05:40;7.57;;;3.08;;
74328;SDS011;62745;51.060;13.786;2023-11-18T10:08:07;6.38;;;3.58;;
74328;SDS011;62745;51.060;13.786;2023-11-18T10:10:33;6.43;;;3.05;;
74328;SDS011;62745;51.060;13.786;2023-11-18T10:13:03;6.63;;;2.90;;
74328;SDS011;62745;51.060;13.786;2023-11-18T10:15:33;5.75;;;2.60;;
74328;SDS011;62745;51.060;13.786;2023-11-18T10:18:00;6.22;;;2.92;;
74328;SDS011;62745;51.060;13.786;2023-11-18T10:20:50;5.78;;;2.88;;
74328;SDS011;62745;51.060;13.786;2023-11-18T10:23:17;4.78;;;2.58;;
74328;SDS011;62745;51.060;13.786;2023-11-18T10:30:52;6.82;;;3.03;;
74328;SDS011;62745;51.060;13.786;2023-11-18T10:33:17;7.90;;;3.20;;
74328;SDS011;62745;51.060;13.786;2023-11-18T10:35:49;8.88;;;3.47;;
74328;SDS011;62745;51.060;13.786;2023-11-18T10:38:20;6.43;;;3.10;;
74328;SDS011;62745;51.060;13.786;2023-11-18T10:40:50;6.40;;;3.25;;
74328;SDS011;62745;51.060;13.786;2023-11-18T10:43:17;10.05;;;3.90;;
74328;SDS011;62745;51.060;13.786;2023-11-18T10:45:42;8.97;;;3.80;;
74328;SDS011;62745;51.060;13.786;2023-11-18T10:48:08;10.77;;;4.10;;
74328;SDS011;62745;51.060;13.786;2023-11-18T10:50:33;7.35;;;3.58;;
74328;SDS011;62745;51.060;13.786;2023-11-18T10:52:59;9.38;;;3.55;;
74328;SDS011;62745;51.060;13.786;2023-11-18T10:55:38;7.18;;;3.45;;
74328;SDS011;62745;51.060;13.786;2023-11-18T10:58:05;8.38;;;3.47;;
74328;SDS011;62745;51.060;13.786;2023-11-18T11:00:49;6.13;;;2.85;;
74328;SDS011;62745;51.060;13.786;2023-11-18T11:03:16;8.82;;;3.22;;
74328;SDS011;62745;51.060;13.786;2023-11-18T11:05:43;6.05;;;2.70;;
74328;SDS011;62745;51.060;13.786;2023-11-18T11:08:11;5.93;;;2.38;;
74328;SDS011;62745;51.060;13.786;2023-11-18T11:10:42;5.45;;;2.90;;
74328;SDS011;62745;51.060;13.786;2023-11-18T11:13:08;6.65;;;2.35;;
74328;SDS011;62745;51.060;13.786;2023-11-18T11:15:36;6.30;;;2.53;;
74328;SDS011;62745;51.060;13.786;2023-11-18T11:18:08;7.25;;;2.90;;
74328;SDS011;62745;51.060;13.786;2023-11-18T11:20:37;8.02;;;2.78;;
74328;SDS011;62745;51.060;13.786;2023-11-18T11:31:39;6.53;;;3.22;;
74328;SDS011;62745;51.060;13.786;2023-11-18T11:34:08;4.55;;;2.25;;
74328;SDS011;62745;51.060;13.786;2023-11-18T11:36:49;6.68;;;2.00;;
74328;SDS011;62745;51.060;13.786;2023-11-18T11:39:16;4.95;;;2.25;;
74328;SDS011;62745;51.060;13.786;2023-11-18T11:41:55;4.15;;;1.90;;
74328;SDS011;62745;51.060;13.786;2023-11-18T11:44:22;3.50;;;1.55;;
74328;SDS011;62745;51.060;13.786;2023-11-18T11:46:54;5.72;;;1.50;;
74328;SDS011;62745;51.060;13.786;2023-11-18T11:49:20;2.10;;;0.90;;
74328;SDS011;62745;51.060;13.786;2023-11-18T11:51:55;3.08;;;1.10;;
74328;SDS011;62745;51.060;13.786;2023-11-18T11:54:41;1.50;;;0.70;;
74328;SDS011;62745;51.060;13.786;2023-11-18T11:57:10;2.22;;;0.82;;
74328;SDS011;62745;51.060;13.786;2023-11-18T12:02:09;2.30;;;1.00;;
74328;SDS011;62745;51.060;13.786;2023-11-18T12:04:36;2.53;;;1.25;;
74328;SDS011;62745;51.060;13.786;2023-11-18T12:07:03;3.30;;;1.30;;
74328;SDS011;62745;51.060;13.786;2023-11-18T12:09:30;3.58;;;1.55;;
74328;SDS011;62745;51.060;13.786;2023-11-18T12:12:02;3.20;;;1.38;;
74328;SDS011;62745;51.060;13.786;2023-11-18T12:14:29;1.70;;;0.85;;
74328;SDS011;62745;51.060;13.786;2023-11-18T12:19:32;2.13;;;1.00;;
74328;SDS011;62745;51.060;13.786;2023-11-18T12:22:22;2.42;;;1.00;;
74328;SDS011;62745;51.060;13.786;2023-11-18T12:35:26;2.42;;;1.10;;
74328;SDS011;62745;51.060;13.786;2023-11-18T12:43:15;3.83;;;1.40;;
74328;SDS011;62745;51.060;13.786;2023-11-18T12:46:10;3.65;;;1.45;;
74328;SDS011;62745;51.060;13.786;2023-11-18T12:48:52;2.42;;;1.10;;
74328;SDS011;62745;51.060;13.786;2023-11-18T12:51:21;3.25;;;1.63;;
74328;SDS011;62745;51.060;13.786;2023-11-18T12:53:48;4.03;;;1.33;;
74328;SDS011;62745;51.060;13.786;2023-11-18T12:56:16;2.65;;;1.17;;
74328;SDS011;62745;51.060;13.786;2023-11-18T12:58:44;3.55;;;1.23;;
74328;SDS011;62745;51.060;13.786;2023-11-18T13:01:10;2.75;;;1.10;;
74328;SDS011;62745;51.060;13.786;2023-11-18T13:03:39;2.92;;;1.23;;
74328;SDS011;62745;51.060;13.786;2023-11-18T13:06:13;3.33;;;1.42;;
74328;SDS011;62745;51.060;13.786;2023-11-18T13:08:39;2.40;;;1.23;;
74328;SDS011;62745;51.060;13.786;2023-11-18T13:11:05;2.90;;;1.40;;
74328;SDS011;62745;51.060;13.786;2023-11-18T13:13:33;3.83;;;1.83;;
74328;SDS011;62745;51.060;13.786;2023-11-18T13:15:59;3.10;;;1.33;;
74328;SDS011;62745;51.060;13.786;2023-11-18T13:18:25;3.08;;;1.30;;
74328;SDS011;62745;51.060;13.786;2023-11-18T13:20:56;3.33;;;1.40;;
74328;SDS011;62745;51.060;13.786;2023-11-18T13:23:24;3.67;;;1.50;;
74328;SDS011;62745;51.060;13.786;2023-11-18T13:25:50;3.30;;;1.35;;
74328;SDS011;62745;51.060;13.786;2023-11-18T13:28:21;4.70;;;1.88;;
74328;SDS011;62745;51.060;13.786;2023-11-18T13:30:47;4.50;;;2.03;;
74328;SDS011;62745;51.060;13.786;2023-11-18T13:33:14;3.55;;;1.73;;
74328;SDS011;62745;51.060;13.786;2023-11-18T13:35:39;4.15;;;2.00;;
74328;SDS011;62745;51.060;13.786;2023-11-18T13:38:05;5.75;;;1.65;;
74328;SDS011;62745;51.060;13.786;2023-11-18T13:40:43;4.18;;;1.80;;
74328;SDS011;62745;51.060;13.786;2023-11-18T13:43:09;5.35;;;2.30;;
74328;SDS011;62745;51.060;13.786;2023-11-18T13:45:34;4.80;;;1.97;;
74328;SDS011;62745;51.060;13.786;2023-11-18T13:48:01;4.20;;;2.22;;
74328;SDS011;62745;51.060;13.786;2023-11-18T13:50:26;4.07;;;1.65;;
74328;SDS011;62745;51.060;13.786;2023-11-18T13:52:52;5.20;;;1.90;;
74328;SDS011;62745;51.060;13.786;2023-11-18T13:55:18;3.75;;;1.92;;
74328;SDS011;62745;51.060;13.786;2023-11-18T13:57:51;4.50;;;2.20;;
74328;SDS011;62745;51.060;13.786;2023-11-18T14:00:17;3.95;;;1.77;;
74328;SDS011;62745;51.060;13.786;2023-11-18T14:02:43;4.63;;;2.05;;
74328;SDS011;62745;51.060;13.786;2023-11-18T14:05:17;4.10;;;1.90;;
74328;SDS011;62745;51.060;13.786;2023-11-18T14:07:45;4.50;;;1.77;;
74328;SDS011;62745;51.060;13.786;2023-11-18T14:10:12;4.55;;;2.50;;
74328;SDS011;62745;51.060;13.786;2023-11-18T14:12:38;3.95;;;1.80;;
74328;SDS011;62745;51.060;13.786;2023-11-18T14:15:24;4.65;;;2.15;;
74328;SDS011;62745;51.060;13.786;2023-11-18T14:17:49;4.57;;;2.13;;
74328;SDS011;62745;51.060;13.786;2023-11-18T14:20:17;4.15;;;1.75;;
74328;SDS011;62745;51.060;13.786;2023-11-18T14:22:42;6.45;;;2.15;;
74328;SDS011;62745;51.060;13.786;2023-11-18T14:25:08;4.27;;;2.07;;
74328;SDS011;62745;51.060;13.786;2023-11-18T14:27:33;4.23;;;2.50;;
74328;SDS011;62745;51.060;13.786;2023-11-18T14:29:58;4.77;;;1.80;;
74328;SDS011;62745;51.060;13.786;2023-11-18T14:32:24;4.37;;;2.40;;
74328;SDS011;62745;51.060;13.786;2023-11-18T14:34:49;6.50;;;2.10;;
74328;SDS011;62745;51.060;13.786;2023-11-18T14:37:14;4.53;;;1.92;;
74328;SDS011;62745;51.060;13.786;2023-11-18T14:39:40;3.70;;;1.80;;
74328;SDS011;62745;51.060;13.786;2023-11-18T14:42:05;5.00;;;2.47;;
74328;SDS011;62745;51.060;13.786;2023-11-18T14:44:31;5.10;;;2.70;;
74328;SDS011;62745;51.060;13.786;2023-11-18T14:46:56;5.13;;;2.20;;
74328;SDS011;62745;51.060;13.786;2023-11-18T14:49:22;4.60;;;2.13;;
74328;SDS011;62745;51.060;13.786;2023-11-18T14:51:47;4.63;;;2.20;;
74328;SDS011;62745;51.060;13.786;2023-11-18T14:54:12;4.57;;;2.30;;
74328;SDS011;62745;51.060;13.786;2023-11-18T14:56:38;4.65;;;2.30;;
74328;SDS011;62745;51.060;13.786;2023-11-18T14:59:03;5.90;;;2.20;;
74328;SDS011;62745;51.060;13.786;2023-11-18T15:01:30;4.57;;;2.40;;
74328;SDS011;62745;51.060;13.786;2023-11-18T15:03:55;6.15;;;2.85;;
74328;SDS011;62745;51.060;13.786;2023-11-18T15:06:27;6.43;;;2.58;;
74328;SDS011;62745;51.060;13.786;2023-11-18T15:08:53;5.20;;;2.60;;
74328;SDS011;62745;51.060;13.786;2023-11-18T15:11:21;5.55;;;2.60;;
74328;SDS011;62745;51.060;13.786;2023-11-18T15:13:48;5.80;;;2.60;;
74328;SDS011;62745;51.060;13.786;2023-11-18T15:16:15;6.32;;;2.67;;